createdAt,value
2018-07-30T00:01:08.516Z,13.43
2018-07-30T00:03:36.709Z,9.60
2018-07-30T00:06:04.912Z,8.77
2018-07-30T00:08:33.550Z,9.27
2018-07-30T00:11:01.729Z,7.00
2018-07-30T00:13:29.895Z,8.77
2018-07-30T00:16:01.512Z,10.63
2018-07-30T00:18:29.725Z,11.95
2018-07-30T00:20:57.938Z,8.97
2018-07-30T00:23:26.116Z,9.73
2018-07-30T00:25:54.295Z,9.60
2018-07-30T00:28:23.455Z,10.08
2018-07-30T00:30:55.126Z,9.30
2018-07-30T00:33:26.709Z,10.38
2018-07-30T00:35:55.302Z,11.90
2018-07-30T00:38:24.179Z,7.90
2018-07-30T00:40:52.490Z,9.73
2018-07-30T00:43:20.676Z,13.77
2018-07-30T00:45:49.210Z,11.28
2018-07-30T00:48:17.438Z,15.90
2018-07-30T00:50:45.559Z,12.73
2018-07-30T00:53:13.731Z,8.80
2018-07-30T00:55:41.973Z,16.00
2018-07-30T00:58:10.185Z,10.00
2018-07-30T01:00:38.584Z,13.93
2018-07-30T01:03:06.748Z,8.67
2018-07-30T01:05:34.709Z,14.60
2018-07-30T01:08:02.920Z,16.53
2018-07-30T01:10:31.126Z,11.50
2018-07-30T01:12:59.339Z,12.60
2018-07-30T01:15:27.915Z,14.83
2018-07-30T01:17:59.269Z,10.67
2018-07-30T01:20:28.135Z,10.65
2018-07-30T01:22:56.342Z,18.73
2018-07-30T01:25:24.530Z,13.13
2018-07-30T01:27:52.653Z,10.58
2018-07-30T01:30:20.863Z,13.00
2018-07-30T01:32:49.045Z,10.63
2018-07-30T01:35:17.607Z,18.55
2018-07-30T01:37:45.810Z,9.53
2018-07-30T01:40:14.155Z,12.60
2018-07-30T01:42:42.395Z,12.82
2018-07-30T01:45:10.591Z,9.35
2018-07-30T01:47:41.735Z,11.50
2018-07-30T01:50:09.927Z,10.20
2018-07-30T01:52:38.203Z,12.40
2018-07-30T01:55:07.107Z,10.43
2018-07-30T01:57:35.302Z,10.77
2018-07-30T02:00:03.627Z,11.53
2018-07-30T02:02:35.951Z,10.78
2018-07-30T02:05:11.672Z,12.30
2018-07-30T02:07:40.783Z,10.57
2018-07-30T02:10:10.614Z,9.28
2018-07-30T02:12:39.120Z,11.60
2018-07-30T02:15:07.540Z,11.43
2018-07-30T02:17:35.503Z,14.65
2018-07-30T02:20:04.029Z,11.48
2018-07-30T02:22:32.224Z,12.28
2018-07-30T02:25:00.427Z,10.50
2018-07-30T02:27:28.651Z,10.85
2018-07-30T02:29:56.881Z,12.73
2018-07-30T02:32:25.136Z,15.48
2018-07-30T02:34:56.427Z,12.73
2018-07-30T02:37:25.196Z,11.33
2018-07-30T02:39:54.086Z,9.70
2018-07-30T02:42:22.303Z,11.17
2018-07-30T02:44:50.540Z,9.83
2018-07-30T02:47:18.754Z,11.40
2018-07-30T02:49:50.863Z,16.03
2018-07-30T02:52:19.435Z,15.78
2018-07-30T02:54:47.651Z,11.73
2018-07-30T02:57:15.643Z,17.53
2018-07-30T02:59:44.049Z,12.37
2018-07-30T03:02:12.239Z,14.13
2018-07-30T03:04:44.046Z,12.93
2018-07-30T03:07:12.236Z,13.17
2018-07-30T03:09:40.468Z,11.18
2018-07-30T03:12:08.831Z,12.60
2018-07-30T03:14:37.019Z,11.33
2018-07-30T03:17:05.220Z,12.70
2018-07-30T03:19:36.431Z,12.37
2018-07-30T03:22:04.612Z,11.13
2018-07-30T03:24:33.760Z,19.48
2018-07-30T03:27:02.187Z,12.80
2018-07-30T03:29:30.863Z,12.98
2018-07-30T03:31:59.063Z,12.50
2018-07-30T03:34:30.288Z,18.40
2018-07-30T03:36:59.382Z,14.27
2018-07-30T03:39:27.550Z,14.30
2018-07-30T03:41:55.778Z,13.55
2018-07-30T03:44:24.157Z,11.87
2018-07-30T03:46:52.670Z,11.80
2018-07-30T03:49:23.944Z,13.35
2018-07-30T03:51:52.130Z,10.20
2018-07-30T03:54:20.089Z,15.53
2018-07-30T03:56:49.003Z,13.73
2018-07-30T03:59:16.972Z,19.27
2018-07-30T04:01:45.167Z,12.17
2018-07-30T04:04:13.716Z,12.85
2018-07-30T04:06:41.891Z,11.00
2018-07-30T04:09:10.098Z,10.27
2018-07-30T04:11:38.579Z,14.40
2018-07-30T04:14:06.799Z,11.33
2018-07-30T04:16:39.095Z,13.77
2018-07-30T04:19:07.283Z,14.97
2018-07-30T04:21:35.515Z,12.60
2018-07-30T04:24:03.564Z,14.95
2018-07-30T04:26:31.721Z,12.50
2018-07-30T04:29:00.099Z,16.73
2018-07-30T04:31:28.726Z,15.45
2018-07-30T04:33:56.934Z,14.63
2018-07-30T04:36:25.160Z,13.47
2018-07-30T04:38:53.382Z,11.93
2018-07-30T04:41:21.604Z,16.43
2018-07-30T04:43:49.829Z,12.97
2018-07-30T04:46:18.187Z,13.53
2018-07-30T04:48:46.395Z,14.78
2018-07-30T04:51:14.732Z,11.32
2018-07-30T04:53:42.905Z,11.70
2018-07-30T04:56:11.179Z,11.38
2018-07-30T04:58:39.357Z,10.87
2018-07-30T05:01:07.775Z,10.60
2018-07-30T05:03:35.932Z,10.40
2018-07-30T05:06:04.179Z,17.17
2018-07-30T05:08:32.379Z,10.93
2018-07-30T05:11:00.592Z,13.65
2018-07-30T05:13:28.811Z,12.60
2018-07-30T05:15:57.019Z,13.50
2018-07-30T05:18:25.204Z,13.20
2018-07-30T05:20:57.736Z,12.60
2018-07-30T05:23:25.937Z,19.50
2018-07-30T05:25:54.103Z,11.03
2018-07-30T05:28:22.321Z,14.37
2018-07-30T05:30:50.695Z,11.47
2018-07-30T05:33:18.887Z,13.77
2018-07-30T05:35:51.482Z,13.40
2018-07-30T05:38:22.940Z,13.75
2018-07-30T05:40:51.147Z,11.33
2018-07-30T05:43:19.376Z,11.27
2018-07-30T05:45:47.366Z,11.03
2018-07-30T05:48:15.588Z,11.73
2018-07-30T05:50:43.819Z,10.10
2018-07-30T05:53:12.222Z,13.30
2018-07-30T05:55:40.460Z,12.87
2018-07-30T05:58:08.776Z,10.87
2018-07-30T06:00:37.003Z,14.70
2018-07-30T06:03:05.380Z,11.07
2018-07-30T06:05:33.626Z,19.67
2018-07-30T06:08:05.434Z,14.50
2018-07-30T06:10:33.639Z,18.73
2018-07-30T06:13:04.883Z,11.53
2018-07-30T06:15:33.303Z,13.90
2018-07-30T06:18:02.435Z,17.00
2018-07-30T06:20:30.682Z,16.67
2018-07-30T06:22:58.890Z,15.78
2018-07-30T06:25:27.298Z,15.48
2018-07-30T06:27:55.467Z,15.43
2018-07-30T06:30:23.667Z,18.67
2018-07-30T06:32:51.851Z,15.18
2018-07-30T06:35:20.098Z,14.75
2018-07-30T06:37:51.311Z,18.65
2018-07-30T06:40:19.571Z,14.45
2018-07-30T06:42:47.771Z,23.60
2018-07-30T06:45:15.948Z,17.10
2018-07-30T06:47:45.211Z,19.87
2018-07-30T06:50:13.396Z,23.00
2018-07-30T06:52:45.186Z,27.17
2018-07-30T06:55:13.406Z,26.90
2018-07-30T06:57:41.835Z,29.83
2018-07-30T07:00:10.823Z,28.43
2018-07-30T07:02:39.423Z,22.80
2018-07-30T07:05:08.520Z,21.63
2018-07-30T07:07:44.359Z,43.23
2018-07-30T07:10:13.082Z,17.73
2018-07-30T07:12:41.388Z,16.93
2018-07-30T07:15:11.864Z,24.17
2018-07-30T07:17:39.858Z,19.30
2018-07-30T07:20:08.471Z,22.03
2018-07-30T07:22:36.796Z,16.07
2018-07-30T07:25:05.372Z,18.00
2018-07-30T07:27:33.631Z,13.53
2018-07-30T07:30:01.803Z,14.00
2018-07-30T07:32:29.999Z,10.40
2018-07-30T07:34:58.255Z,24.90
2018-07-30T07:37:26.387Z,12.60
2018-07-30T07:39:58.403Z,14.67
2018-07-30T07:42:26.708Z,21.17
2018-07-30T07:44:54.648Z,11.80
2018-07-30T07:47:23.015Z,12.10
2018-07-30T07:49:51.287Z,16.70
2018-07-30T07:52:19.526Z,11.55
2018-07-30T07:54:52.294Z,11.57
2018-07-30T07:57:20.527Z,10.07
2018-07-30T07:59:48.804Z,11.93
2018-07-30T08:02:17.264Z,8.50
2018-07-30T08:04:45.533Z,9.70
2018-07-30T08:07:13.710Z,9.77
2018-07-30T08:09:46.143Z,12.28
2018-07-30T08:12:14.316Z,9.30
2018-07-30T08:14:43.236Z,11.40
2018-07-30T08:17:11.448Z,13.50
2018-07-30T08:19:39.705Z,7.67
2018-07-30T08:22:08.335Z,6.95
2018-07-30T08:24:40.109Z,8.48
2018-07-30T08:27:08.737Z,5.70
2018-07-30T08:29:37.027Z,10.63
2018-07-30T08:32:05.282Z,10.00
2018-07-30T08:34:33.479Z,9.40
2018-07-30T08:37:01.661Z,7.57
2018-07-30T08:39:33.044Z,7.57
2018-07-30T08:42:01.287Z,9.60
2018-07-30T08:44:29.479Z,7.63
2018-07-30T08:46:58.351Z,6.22
2018-07-30T08:49:26.524Z,7.80
2018-07-30T08:51:54.696Z,8.23
2018-07-30T08:54:27.055Z,8.20
2018-07-30T08:56:55.320Z,6.20
2018-07-30T08:59:23.707Z,12.33
2018-07-30T09:01:51.880Z,5.37
2018-07-30T09:04:20.052Z,6.17
2018-07-30T09:06:48.555Z,5.45
2018-07-30T09:09:19.884Z,9.57
2018-07-30T09:11:48.975Z,8.25
2018-07-30T09:14:17.564Z,8.53
2018-07-30T09:16:45.751Z,9.43
2018-07-30T09:19:13.976Z,6.23
2018-07-30T09:21:42.148Z,7.58
2018-07-30T09:24:10.340Z,6.03
2018-07-30T09:26:38.558Z,6.53
2018-07-30T09:29:06.744Z,6.73
2018-07-30T09:31:34.948Z,8.77
2018-07-30T09:34:03.147Z,10.23
2018-07-30T09:36:31.366Z,8.43
2018-07-30T09:38:59.334Z,6.97
2018-07-30T09:41:27.684Z,8.78
2018-07-30T09:43:55.871Z,5.70
2018-07-30T09:46:24.063Z,7.03
2018-07-30T09:48:52.635Z,6.22
2018-07-30T09:51:20.879Z,7.97
2018-07-30T09:53:49.262Z,5.72
2018-07-30T09:56:17.487Z,7.50
2018-07-30T09:58:45.656Z,8.17
2018-07-30T10:01:19.206Z,9.80
2018-07-30T10:03:47.474Z,6.95
2018-07-30T10:06:15.670Z,6.03
2018-07-30T10:08:43.858Z,6.53
2018-07-30T10:11:12.615Z,8.18
2018-07-30T10:13:40.812Z,6.40
2018-07-30T10:16:09.016Z,7.50
2018-07-30T10:18:37.420Z,11.00
2018-07-30T10:21:05.689Z,9.33
2018-07-30T10:23:33.855Z,7.20
2018-07-30T10:26:02.036Z,5.90
2018-07-30T10:28:30.227Z,9.57
2018-07-30T10:30:58.411Z,6.73
2018-07-30T10:33:26.592Z,7.23
2018-07-30T10:35:54.811Z,7.07
2018-07-30T10:38:23.292Z,8.07
2018-07-30T10:40:54.911Z,7.20
2018-07-30T10:43:23.153Z,5.90
2018-07-30T10:45:51.791Z,6.87
2018-07-30T10:48:20.004Z,9.50
2018-07-30T10:50:49.111Z,7.93
2018-07-30T10:53:17.258Z,6.40
2018-07-30T10:55:46.144Z,5.87
2018-07-30T10:58:18.384Z,5.53
2018-07-30T11:00:47.111Z,5.47
2018-07-30T11:03:15.383Z,5.47
2018-07-30T11:05:43.591Z,7.23
2018-07-30T11:08:11.817Z,6.50
2018-07-30T11:10:40.013Z,5.47
2018-07-30T11:13:08.239Z,5.13
2018-07-30T11:15:37.353Z,9.60
2018-07-30T11:18:06.454Z,5.27
2018-07-30T11:20:34.748Z,5.53
2018-07-30T11:23:02.699Z,9.03
2018-07-30T11:25:30.940Z,9.77
2018-07-30T11:28:03.334Z,7.93
2018-07-30T11:30:31.472Z,5.90
2018-07-30T11:32:59.660Z,5.43
2018-07-30T11:35:27.856Z,9.37
2018-07-30T11:37:56.169Z,5.50
2018-07-30T11:40:24.374Z,5.80
2018-07-30T11:42:57.249Z,5.60
2018-07-30T11:45:25.421Z,13.87
2018-07-30T11:47:53.565Z,5.03
2018-07-30T11:50:22.498Z,8.03
2018-07-30T11:52:51.786Z,8.33
2018-07-30T11:55:19.983Z,6.27
2018-07-30T11:57:48.299Z,4.93
2018-07-30T12:00:16.485Z,6.27
2018-07-30T12:05:19.482Z,10.30
2018-07-30T12:07:47.648Z,4.80
2018-07-30T12:10:16.551Z,5.10
2018-07-30T12:12:44.764Z,8.50
2018-07-30T12:15:23.835Z,4.13
2018-07-30T12:17:52.034Z,7.13
2018-07-30T12:20:20.242Z,9.17
2018-07-30T12:22:48.656Z,5.00
2018-07-30T12:25:16.839Z,5.20
2018-07-30T12:27:48.907Z,6.43
2018-07-30T12:30:20.571Z,10.47
2018-07-30T12:32:55.802Z,5.93
2018-07-30T12:35:24.008Z,4.90
2018-07-30T12:37:52.538Z,3.97
2018-07-30T12:40:20.799Z,4.73
2018-07-30T12:43:01.087Z,4.83
2018-07-30T12:45:34.752Z,5.23
2018-07-30T12:48:02.932Z,4.47
2018-07-30T12:50:31.191Z,4.95
2018-07-30T12:52:59.373Z,4.70
2018-07-30T12:55:27.608Z,5.40
2018-07-30T12:57:55.871Z,4.83
2018-07-30T13:00:24.101Z,5.40
2018-07-30T13:02:52.429Z,10.50
2018-07-30T13:05:20.652Z,4.57
2018-07-30T13:07:48.857Z,4.27
2018-07-30T13:10:17.220Z,6.27
2018-07-30T13:12:45.448Z,4.40
2018-07-30T13:15:16.755Z,5.47
2018-07-30T13:17:48.176Z,6.43
2018-07-30T13:20:16.459Z,4.37
2018-07-30T13:22:44.672Z,6.70
2018-07-30T13:25:12.872Z,13.00
2018-07-30T13:27:41.211Z,4.90
2018-07-30T13:30:13.259Z,6.10
2018-07-30T13:32:41.670Z,5.50
2018-07-30T13:35:09.896Z,5.93
2018-07-30T13:37:38.109Z,5.07
2018-07-30T13:40:06.452Z,4.30
2018-07-30T13:42:34.721Z,4.87
2018-07-30T13:45:02.864Z,5.50
2018-07-30T13:47:31.213Z,4.90
2018-07-30T13:49:59.413Z,4.30
2018-07-30T13:52:27.647Z,5.37
2018-07-30T13:54:55.847Z,4.40
2018-07-30T13:57:24.051Z,9.35
2018-07-30T13:59:55.590Z,8.37
2018-07-30T14:02:23.835Z,7.50
2018-07-30T14:04:52.219Z,5.80
2018-07-30T14:07:20.415Z,7.40
2018-07-30T14:09:49.506Z,6.70
2018-07-30T14:12:17.683Z,8.20
2018-07-30T14:14:56.483Z,7.22
2018-07-30T14:17:24.675Z,5.93
2018-07-30T14:19:53.552Z,5.70
2018-07-30T14:22:21.779Z,6.27
2018-07-30T14:24:49.936Z,6.80
2018-07-30T14:27:18.500Z,6.33
2018-07-30T14:29:50.235Z,8.13
2018-07-30T14:32:18.963Z,6.80
2018-07-30T14:34:47.119Z,6.20
2018-07-30T14:37:15.294Z,6.50
2018-07-30T14:39:43.431Z,5.22
2018-07-30T14:42:11.616Z,6.60
2018-07-30T14:44:39.822Z,6.60
2018-07-30T14:47:08.505Z,8.70
2018-07-30T14:49:36.701Z,6.03
2018-07-30T14:52:04.945Z,5.90
2018-07-30T14:54:33.105Z,7.83
2018-07-30T14:57:01.297Z,6.27
2018-07-30T14:59:29.501Z,4.53
2018-07-30T15:01:58.020Z,6.67
2018-07-30T15:04:26.204Z,4.63
2018-07-30T15:06:54.343Z,4.95
2018-07-30T15:09:22.549Z,5.92
2018-07-30T15:11:50.744Z,6.42
2018-07-30T15:14:18.919Z,5.92
2018-07-30T15:16:47.200Z,6.35
2018-07-30T15:19:15.713Z,5.10
2018-07-30T15:21:44.121Z,7.80
2018-07-30T15:24:12.299Z,5.55
2018-07-30T15:26:42.419Z,5.40
2018-07-30T15:29:10.623Z,8.33
2018-07-30T15:31:38.796Z,8.47
2018-07-30T15:34:07.391Z,6.83
2018-07-30T15:36:36.262Z,11.40
2018-07-30T15:39:07.668Z,9.47
2018-07-30T15:41:35.913Z,9.90
2018-07-30T15:44:04.225Z,5.37
2018-07-30T15:46:32.434Z,6.40
2018-07-30T15:49:00.653Z,9.77
2018-07-30T15:51:28.853Z,12.13
2018-07-30T15:53:57.115Z,7.93
2018-07-30T15:56:25.293Z,8.50
2018-07-30T15:58:53.438Z,6.90
2018-07-30T16:01:25.887Z,6.90
2018-07-30T16:03:54.079Z,8.10
2018-07-30T16:06:22.424Z,7.03
2018-07-30T16:08:50.674Z,7.78
2018-07-30T16:11:18.912Z,13.23
2018-07-30T16:13:47.147Z,7.70
2018-07-30T16:16:15.398Z,6.58
2018-07-30T16:18:43.627Z,5.83
2018-07-30T16:21:11.814Z,10.10
2018-07-30T16:23:39.987Z,6.77
2018-07-30T16:26:08.200Z,10.80
2018-07-30T16:28:36.423Z,6.97
2018-07-30T16:31:04.625Z,9.58
2018-07-30T16:33:36.849Z,9.03
2018-07-30T16:36:05.374Z,6.33
2018-07-30T16:38:33.640Z,9.53
2018-07-30T16:41:01.911Z,7.53
2018-07-30T16:43:31.102Z,9.10
2018-07-30T16:45:59.343Z,8.47
2018-07-30T16:48:27.782Z,9.10
2018-07-30T16:50:56.355Z,7.80
2018-07-30T16:53:25.250Z,5.63
2018-07-30T16:55:53.574Z,6.30
2018-07-30T16:58:21.799Z,7.30
2018-07-30T17:00:50.535Z,6.63
2018-07-30T17:03:18.712Z,10.83
2018-07-30T17:05:47.010Z,12.78
2018-07-30T17:08:15.416Z,8.40
2018-07-30T17:10:43.651Z,6.60
2018-07-30T17:13:12.008Z,9.88
2018-07-30T17:15:40.311Z,8.73
2018-07-30T17:18:13.112Z,10.10
2018-07-30T17:20:41.743Z,6.20
2018-07-30T17:23:11.106Z,11.03
2018-07-30T17:25:39.277Z,7.10
2018-07-30T17:28:07.651Z,9.33
2018-07-30T17:30:35.931Z,8.90
2018-07-30T17:33:04.107Z,8.55
2018-07-30T17:35:32.334Z,6.15
2018-07-30T17:38:00.707Z,6.33
2018-07-30T17:40:28.896Z,8.13
2018-07-30T17:42:57.150Z,6.80
2018-07-30T17:45:25.424Z,9.45
2018-07-30T17:47:57.917Z,10.60
2018-07-30T17:50:26.432Z,10.82
2018-07-30T17:52:55.611Z,6.73
2018-07-30T17:55:23.871Z,7.70
2018-07-30T17:57:52.087Z,6.15
2018-07-30T18:00:20.442Z,5.57
2018-07-30T18:02:48.672Z,6.47
2018-07-30T18:05:18.779Z,8.93
2018-07-30T18:07:48.340Z,10.43
2018-07-30T18:10:16.681Z,10.20
2018-07-30T18:12:45.547Z,6.63
2018-07-30T18:15:13.815Z,10.53
2018-07-30T18:17:42.043Z,9.33
2018-07-30T18:20:10.439Z,8.10
2018-07-30T18:22:38.883Z,7.73
2018-07-30T18:25:07.067Z,7.27
2018-07-30T18:27:35.263Z,11.60
2018-07-30T18:30:04.860Z,7.23
2018-07-30T18:32:33.083Z,6.10
2018-07-30T18:35:04.536Z,7.45
2018-07-30T18:37:32.789Z,9.03
2018-07-30T18:40:02.159Z,8.63
2018-07-30T18:42:30.807Z,9.17
2018-07-30T18:44:59.322Z,8.60
2018-07-30T18:47:27.493Z,8.57
2018-07-30T18:49:59.363Z,7.95
2018-07-30T18:52:27.542Z,17.03
2018-07-30T18:54:55.785Z,10.90
2018-07-30T18:57:23.982Z,9.68
2018-07-30T18:59:52.239Z,13.00
2018-07-30T19:02:20.434Z,9.63
2018-07-30T19:04:52.219Z,11.70
2018-07-30T19:07:20.696Z,7.50
2018-07-30T19:09:48.880Z,12.10
2018-07-30T19:12:17.202Z,14.40
2018-07-30T19:14:51.828Z,14.60
2018-07-30T19:17:20.776Z,13.80
2018-07-30T19:19:52.657Z,11.10
2018-07-30T19:22:21.203Z,11.00
2018-07-30T19:24:49.526Z,12.03
2018-07-30T19:27:18.026Z,9.47
2018-07-30T19:29:46.548Z,13.30
2018-07-30T19:32:14.892Z,14.03
2018-07-30T19:34:43.236Z,13.17
2018-07-30T19:37:11.507Z,8.78
2018-07-30T19:39:39.785Z,9.40
2018-07-30T19:42:08.081Z,9.15
2018-07-30T19:44:36.432Z,17.47
2018-07-30T19:47:05.280Z,12.83
2018-07-30T19:49:33.586Z,12.25
2018-07-30T19:52:05.091Z,21.37
2018-07-30T19:54:33.306Z,9.60
2018-07-30T19:57:01.616Z,16.03
2018-07-30T19:59:29.900Z,13.77
2018-07-30T20:01:58.235Z,13.33
2018-07-30T20:04:26.836Z,15.53
2018-07-30T20:06:55.095Z,11.53
2018-07-30T20:09:23.323Z,11.53
2018-07-30T20:11:51.904Z,11.25
2018-07-30T20:14:20.674Z,14.98
2018-07-30T20:16:48.967Z,18.70
2018-07-30T20:19:17.376Z,11.43
2018-07-30T20:21:45.820Z,8.00
2018-07-30T20:24:14.145Z,9.90
2018-07-30T20:26:42.505Z,9.60
2018-07-30T20:29:10.791Z,9.07
2018-07-30T20:31:39.104Z,16.03
2018-07-30T20:34:07.344Z,12.67
2018-07-30T20:36:35.559Z,10.08
2018-07-30T20:39:05.687Z,19.60
2018-07-30T20:41:33.932Z,9.23
2018-07-30T20:44:02.148Z,9.53
2018-07-30T20:46:31.168Z,11.18
2018-07-30T20:49:00.309Z,10.60
2018-07-30T20:51:28.615Z,9.70
2018-07-30T20:53:56.826Z,9.23
2018-07-30T20:56:25.117Z,10.67
2018-07-30T20:58:53.370Z,8.83
2018-07-30T21:01:21.752Z,9.83
2018-07-30T21:03:50.053Z,10.17
2018-07-30T21:06:29.834Z,12.05
2018-07-30T21:08:58.171Z,13.23
2018-07-30T21:11:26.659Z,9.63
2018-07-30T21:13:54.993Z,9.90
2018-07-30T21:16:23.218Z,13.43
2018-07-30T21:18:51.423Z,10.63
2018-07-30T21:21:19.676Z,13.67
2018-07-30T21:23:47.847Z,14.43
2018-07-30T21:26:16.042Z,10.80
2018-07-30T21:28:44.256Z,10.23
2018-07-30T21:31:12.489Z,17.53
2018-07-30T21:33:40.642Z,9.10
2018-07-30T21:36:08.850Z,10.60
2018-07-30T21:38:37.013Z,11.60
2018-07-30T21:41:05.250Z,11.88
2018-07-30T21:43:33.602Z,9.90
2018-07-30T21:46:01.849Z,10.80
2018-07-30T21:48:30.051Z,9.87
2018-07-30T21:50:58.303Z,14.43
2018-07-30T21:53:26.527Z,12.23
2018-07-30T21:55:54.723Z,11.63
2018-07-30T21:58:22.955Z,10.50
2018-07-30T22:00:58.056Z,14.20
2018-07-30T22:03:26.800Z,10.25
2018-07-30T22:05:57.521Z,11.18
2018-07-30T22:08:26.257Z,11.43
2018-07-30T22:10:54.506Z,12.50
2018-07-30T22:13:22.699Z,10.50
2018-07-30T22:15:50.943Z,12.05
2018-07-30T22:20:53.960Z,12.43
2018-07-30T22:23:26.351Z,11.23
2018-07-30T22:25:54.696Z,10.10
2018-07-30T22:28:22.900Z,11.40
2018-07-30T22:30:51.377Z,12.33
2018-07-30T22:33:19.611Z,12.60
2018-07-30T22:35:47.899Z,10.53
2018-07-30T22:38:16.183Z,13.47
2018-07-30T22:40:44.555Z,15.25
2018-07-30T22:43:12.766Z,10.23
2018-07-30T22:45:40.958Z,10.00
2018-07-30T22:48:09.263Z,12.17
2018-07-30T22:50:37.475Z,11.28
2018-07-30T22:53:05.660Z,11.97
2018-07-30T22:55:33.894Z,19.23
2018-07-30T22:58:02.117Z,10.30
2018-07-30T23:00:30.303Z,11.40
2018-07-30T23:02:58.482Z,11.85
2018-07-30T23:05:26.711Z,11.20
2018-07-30T23:07:54.960Z,10.85
2018-07-30T23:10:26.077Z,13.37
2018-07-30T23:12:54.261Z,12.30
2018-07-30T23:15:22.490Z,8.90
2018-07-30T23:17:50.705Z,14.90
2018-07-30T23:20:26.607Z,14.18
2018-07-30T23:22:54.806Z,10.47
2018-07-30T23:25:24.255Z,11.87
2018-07-30T23:27:52.511Z,10.73
2018-07-30T23:30:20.757Z,12.13
2018-07-30T23:32:48.947Z,11.13
2018-07-30T23:35:17.203Z,12.07
2018-07-30T23:37:45.532Z,9.78
2018-07-30T23:40:17.095Z,18.83
2018-07-30T23:42:46.225Z,11.53
2018-07-30T23:45:14.415Z,12.93
2018-07-30T23:47:42.629Z,16.65
2018-07-30T23:50:10.836Z,10.20
2018-07-30T23:52:39.030Z,10.33
2018-07-30T23:55:10.942Z,10.63
2018-07-30T23:57:39.150Z,13.40
